createdAt,value
2022-10-10T00:02:19.740Z,7.27
2022-10-10T00:04:49.154Z,7.16
2022-10-10T00:07:18.602Z,7.11
2022-10-10T00:09:48.224Z,7.18
2022-10-10T00:12:20.186Z,7.23
2022-10-10T00:14:49.571Z,7.22
2022-10-10T00:17:18.977Z,7.24
2022-10-10T00:19:48.976Z,7.23
2022-10-10T00:22:18.409Z,7.14
2022-10-10T00:24:47.777Z,7.25
2022-10-10T00:27:19.841Z,7.31
2022-10-10T00:29:49.358Z,7.45
2022-10-10T00:32:18.745Z,7.56
2022-10-10T00:34:48.118Z,7.54
2022-10-10T00:37:17.547Z,7.47
2022-10-10T00:39:47.054Z,7.46
2022-10-10T00:42:17.366Z,7.48
2022-10-10T00:44:49.926Z,7.43
2022-10-10T00:47:19.305Z,7.46
2022-10-10T00:49:48.714Z,7.52
2022-10-10T00:52:18.088Z,7.45
2022-10-10T00:54:47.450Z,7.63
2022-10-10T00:57:17.484Z,7.27
2022-10-10T00:59:49.621Z,7.12
2022-10-10T01:02:19.044Z,7.26
2022-10-10T01:04:48.718Z,7.18
2022-10-10T01:07:20.256Z,7.37
2022-10-10T01:09:50.145Z,7.42
2022-10-10T01:12:24.791Z,7.47
2022-10-10T01:15:02.879Z,7.52
2022-10-10T01:17:36.524Z,7.53
2022-10-10T01:20:40.311Z,7.42
2022-10-10T01:23:25.581Z,7.38
2022-10-10T01:26:04.909Z,7.45
2022-10-10T01:28:43.027Z,7.27
2022-10-10T01:31:14.664Z,7.46
2022-10-10T01:33:49.866Z,7.35
2022-10-10T01:36:25.325Z,7.30
2022-10-10T01:39:00.537Z,7.30
2022-10-10T01:41:34.889Z,7.05
2022-10-10T01:44:06.907Z,7.08
2022-10-10T01:46:36.501Z,7.12
2022-10-10T01:49:06.166Z,7.11
2022-10-10T01:51:47.180Z,7.26
2022-10-10T01:54:25.463Z,7.23
2022-10-10T01:57:02.570Z,7.20
2022-10-10T01:59:43.059Z,7.11
2022-10-10T02:02:18.141Z,6.94
2022-10-10T02:04:52.387Z,6.93
2022-10-10T02:07:25.409Z,7.10
2022-10-10T02:09:55.570Z,7.06
2022-10-10T02:12:25.385Z,7.13
2022-10-10T02:15:00.105Z,7.25
2022-10-10T02:17:30.066Z,7.26
2022-10-10T02:20:02.002Z,7.04
2022-10-10T02:22:32.798Z,6.96
2022-10-10T02:25:02.220Z,6.94
2022-10-10T02:27:35.077Z,6.83
2022-10-10T02:30:08.878Z,6.81
2022-10-10T02:32:41.657Z,6.73
2022-10-10T02:35:14.653Z,6.67
2022-10-10T02:37:45.075Z,6.64
2022-10-10T02:40:17.457Z,6.68
2022-10-10T02:42:47.631Z,6.54
2022-10-10T02:45:21.174Z,6.46
2022-10-10T02:47:50.685Z,6.53
2022-10-10T02:50:20.148Z,6.48
2022-10-10T02:52:49.873Z,6.43
2022-10-10T02:55:19.470Z,6.41
2022-10-10T02:57:48.850Z,6.53
2022-10-10T03:00:21.781Z,6.57
2022-10-10T03:02:51.464Z,6.52
2022-10-10T03:05:21.069Z,6.45
2022-10-10T03:07:50.610Z,6.35
2022-10-10T03:10:20.096Z,6.36
2022-10-10T03:12:49.838Z,6.36
2022-10-10T03:15:22.019Z,6.40
2022-10-10T03:17:51.422Z,6.33
2022-10-10T03:20:21.014Z,6.41
2022-10-10T03:22:50.704Z,6.49
2022-10-10T03:25:20.651Z,6.67
2022-10-10T03:27:50.014Z,6.51
2022-10-10T03:30:22.049Z,6.57
2022-10-10T03:32:51.722Z,6.58
2022-10-10T03:35:21.319Z,6.66
2022-10-10T03:37:50.726Z,6.46
2022-10-10T03:40:20.094Z,6.45
2022-10-10T03:42:49.755Z,6.51
2022-10-10T03:45:22.035Z,6.55
2022-10-10T03:47:51.422Z,6.44
2022-10-10T03:50:21.047Z,6.56
2022-10-10T03:52:50.684Z,6.41
2022-10-10T03:55:20.400Z,6.56
2022-10-10T03:57:50.003Z,6.41
2022-10-10T04:00:22.255Z,6.43
2022-10-10T04:02:53.754Z,6.41
2022-10-10T04:05:23.374Z,6.34
2022-10-10T04:07:52.760Z,6.47
2022-10-10T04:10:22.179Z,6.40
2022-10-10T04:12:51.996Z,6.33
2022-10-10T04:15:24.135Z,6.17
2022-10-10T04:17:53.995Z,6.23
2022-10-10T04:20:23.402Z,6.38
2022-10-10T04:22:53.337Z,6.46
2022-10-10T04:25:22.956Z,6.52
2022-10-10T04:27:53.613Z,6.41
2022-10-10T04:30:27.210Z,6.43
2022-10-10T04:32:56.572Z,6.51
2022-10-10T04:35:25.931Z,6.41
2022-10-10T04:37:56.113Z,6.35
2022-10-10T04:40:26.803Z,7.09
2022-10-10T04:42:57.383Z,7.56
2022-10-10T04:45:31.834Z,7.35
2022-10-10T04:48:03.426Z,7.27
2022-10-10T04:50:32.832Z,7.62
2022-10-10T04:53:02.226Z,7.34
2022-10-10T04:55:31.703Z,7.57
2022-10-10T04:58:01.089Z,7.12
2022-10-10T05:00:33.109Z,7.29
2022-10-10T05:03:02.514Z,7.92
2022-10-10T05:05:31.921Z,7.88
2022-10-10T05:08:01.311Z,7.39
2022-10-10T05:10:30.713Z,6.82
2022-10-10T05:13:00.089Z,7.36
2022-10-10T05:15:29.678Z,7.37
2022-10-10T05:18:01.661Z,7.45
2022-10-10T05:20:31.115Z,7.24
2022-10-10T05:23:00.506Z,7.41
2022-10-10T05:25:30.010Z,7.68
2022-10-10T05:27:59.414Z,8.12
2022-10-10T05:30:28.849Z,7.97
2022-10-10T05:33:00.821Z,7.59
2022-10-10T05:35:30.358Z,7.64
2022-10-10T05:37:59.778Z,7.29
2022-10-10T05:40:29.526Z,6.69
2022-10-10T05:42:58.908Z,6.28
2022-10-10T05:45:28.357Z,6.13
2022-10-10T05:47:57.736Z,6.06
2022-10-10T05:50:35.019Z,5.90
2022-10-10T05:53:04.532Z,5.77
2022-10-10T05:55:34.116Z,5.70
2022-10-10T05:58:03.557Z,5.72
2022-10-10T06:00:32.975Z,5.73
2022-10-10T06:03:02.390Z,5.70
2022-10-10T06:05:34.403Z,5.67
2022-10-10T06:08:09.366Z,5.65
2022-10-10T06:10:42.589Z,5.61
2022-10-10T06:13:12.080Z,5.58
2022-10-10T06:15:41.592Z,5.58
2022-10-10T06:18:11.378Z,5.63
2022-10-10T06:20:43.946Z,5.60
2022-10-10T06:23:13.347Z,5.52
2022-10-10T06:25:42.833Z,5.55
2022-10-10T06:28:12.717Z,5.54
2022-10-10T06:30:43.234Z,5.61
2022-10-10T06:33:12.718Z,5.63
2022-10-10T06:35:45.875Z,5.64
2022-10-10T06:38:15.861Z,5.69
2022-10-10T06:40:45.744Z,5.71
2022-10-10T06:43:16.954Z,5.73
2022-10-10T06:45:48.053Z,5.77
2022-10-10T06:48:18.289Z,5.89
2022-10-10T06:50:58.356Z,6.84
2022-10-10T06:53:27.922Z,6.88
2022-10-10T06:55:57.990Z,6.91
2022-10-10T06:58:28.975Z,6.86
2022-10-10T07:01:00.221Z,6.99
2022-10-10T07:03:30.373Z,6.79
2022-10-10T07:06:03.918Z,6.84
2022-10-10T07:08:34.671Z,6.62
2022-10-10T07:11:04.125Z,6.58
2022-10-10T07:13:33.778Z,6.54
2022-10-10T07:16:03.471Z,6.58
2022-10-10T07:18:33.665Z,6.62
2022-10-10T07:21:06.011Z,6.70
2022-10-10T07:23:36.958Z,6.71
2022-10-10T07:26:09.017Z,6.79
2022-10-10T07:28:38.445Z,6.86
2022-10-10T07:31:09.729Z,6.93
2022-10-10T07:33:42.994Z,7.00
2022-10-10T07:36:17.313Z,7.08
2022-10-10T07:38:46.770Z,7.15
2022-10-10T07:41:16.483Z,7.27
2022-10-10T07:43:45.975Z,7.34
2022-10-10T07:46:18.578Z,7.46
2022-10-10T07:48:48.835Z,7.49
2022-10-10T07:51:20.865Z,7.57
2022-10-10T07:53:50.305Z,7.63
2022-10-10T07:56:19.681Z,7.73
2022-10-10T07:58:49.074Z,7.82
2022-10-10T08:01:18.529Z,7.87
2022-10-10T08:03:48.615Z,7.94
2022-10-10T08:06:20.993Z,8.03
2022-10-10T08:08:52.492Z,8.06
2022-10-10T08:11:22.848Z,8.14
2022-10-10T08:13:52.837Z,8.22
2022-10-10T08:16:22.677Z,8.32
2022-10-10T08:18:52.145Z,8.40
2022-10-10T08:21:24.282Z,8.37
2022-10-10T08:23:53.680Z,8.45
2022-10-10T08:26:23.122Z,8.54
2022-10-10T08:28:52.575Z,8.61
2022-10-10T08:31:23.947Z,8.70
2022-10-10T08:33:54.398Z,8.77
2022-10-10T08:36:27.588Z,8.88
2022-10-10T08:38:59.399Z,8.97
2022-10-10T08:41:35.933Z,9.03
2022-10-10T08:44:09.630Z,9.17
2022-10-10T08:46:42.387Z,9.20
2022-10-10T08:49:20.833Z,9.29
2022-10-10T08:51:59.951Z,9.37
2022-10-10T08:54:29.850Z,9.53
2022-10-10T08:57:02.519Z,9.58
2022-10-10T08:59:34.750Z,9.72
2022-10-10T09:02:26.040Z,9.79
2022-10-10T09:04:55.784Z,9.89
2022-10-10T09:07:36.458Z,9.94
2022-10-10T09:10:12.930Z,10.12
2022-10-10T09:12:47.470Z,10.17
2022-10-10T09:15:20.618Z,10.17
2022-10-10T09:17:56.139Z,10.19
2022-10-10T09:20:35.629Z,10.31
2022-10-10T09:23:14.261Z,10.51
2022-10-10T09:25:46.129Z,10.59
2022-10-10T09:28:19.074Z,10.63
2022-10-10T09:30:51.621Z,10.65
2022-10-10T09:33:29.448Z,10.71
2022-10-10T09:36:00.815Z,10.82
2022-10-10T09:38:39.942Z,11.04
2022-10-10T09:41:16.062Z,11.13
2022-10-10T09:43:45.439Z,11.22
2022-10-10T09:46:14.811Z,11.35
2022-10-10T09:48:45.293Z,11.45
2022-10-10T09:51:17.307Z,11.64
2022-10-10T09:53:50.498Z,11.78
2022-10-10T09:56:23.161Z,11.88
2022-10-10T09:58:54.198Z,11.85
2022-10-10T10:01:25.307Z,11.89
2022-10-10T10:04:29.166Z,12.02
2022-10-10T10:07:09.001Z,11.91
2022-10-10T10:09:41.015Z,11.89
2022-10-10T10:12:10.436Z,12.06
2022-10-10T10:14:40.865Z,11.99
2022-10-10T10:17:12.178Z,12.19
2022-10-10T10:19:43.297Z,12.25
2022-10-10T10:22:30.168Z,12.31
2022-10-10T10:25:02.557Z,12.34
2022-10-10T10:27:32.065Z,12.38
2022-10-10T10:30:01.718Z,12.32
2022-10-10T10:32:46.588Z,12.46
2022-10-10T10:35:23.810Z,12.41
2022-10-10T10:38:10.308Z,12.71
2022-10-10T10:40:44.535Z,12.80
2022-10-10T10:43:30.839Z,12.94
2022-10-10T10:46:07.786Z,12.98
2022-10-10T10:48:43.812Z,12.98
2022-10-10T10:51:24.094Z,13.28
2022-10-10T10:54:00.275Z,13.52
2022-10-10T10:56:36.997Z,13.55
2022-10-10T10:59:41.713Z,13.48
2022-10-10T11:02:31.227Z,13.56
2022-10-10T11:05:41.391Z,13.84
2022-10-10T11:08:27.690Z,13.79
2022-10-10T11:11:07.736Z,13.98
2022-10-10T11:13:42.392Z,13.98
2022-10-10T11:16:36.291Z,14.00
2022-10-10T11:19:13.726Z,14.17
2022-10-10T11:21:47.065Z,14.49
2022-10-10T11:24:18.974Z,14.61
2022-10-10T11:26:50.625Z,14.69
2022-10-10T11:29:24.747Z,14.68
2022-10-10T11:31:57.977Z,14.53
2022-10-10T11:34:30.961Z,14.52
2022-10-10T11:37:04.758Z,14.77
2022-10-10T11:39:39.354Z,14.95
2022-10-10T11:42:12.057Z,14.98
2022-10-10T11:44:46.694Z,14.99
2022-10-10T11:47:19.554Z,15.06
2022-10-10T11:49:54.253Z,15.01
2022-10-10T11:52:34.039Z,14.87
2022-10-10T11:55:08.008Z,14.85
2022-10-10T11:57:41.182Z,15.06
2022-10-10T12:00:17.411Z,15.18
2022-10-10T12:02:48.202Z,15.13
2022-10-10T12:05:25.197Z,15.22
2022-10-10T12:08:08.022Z,15.21
2022-10-10T12:10:40.371Z,14.98
2022-10-10T12:13:22.186Z,15.03
2022-10-10T12:15:56.633Z,15.28
2022-10-10T12:18:28.180Z,15.37
2022-10-10T12:21:09.434Z,15.15
2022-10-10T12:23:41.086Z,14.99
2022-10-10T12:26:16.230Z,15.03
2022-10-10T12:29:02.937Z,14.92
2022-10-10T12:31:39.646Z,14.72
2022-10-10T12:34:53.561Z,14.78
2022-10-10T12:37:26.135Z,14.79
2022-10-10T12:40:20.707Z,14.72
2022-10-10T12:43:26.443Z,14.92
2022-10-10T12:46:18.069Z,15.28
2022-10-10T12:49:01.514Z,15.70
2022-10-10T12:51:33.496Z,15.89
2022-10-10T12:54:05.115Z,16.26
2022-10-10T12:56:36.666Z,16.17
2022-10-10T12:59:08.083Z,16.28
2022-10-10T13:01:47.938Z,16.13
2022-10-10T13:04:21.254Z,15.84
2022-10-10T13:06:52.273Z,15.65
2022-10-10T13:09:23.709Z,15.64
2022-10-10T13:11:54.643Z,15.99
2022-10-10T13:14:24.050Z,16.39
2022-10-10T13:16:53.484Z,16.38
2022-10-10T13:19:27.041Z,16.41
2022-10-10T13:21:57.804Z,16.37
2022-10-10T13:24:31.378Z,16.50
2022-10-10T13:27:01.297Z,16.30
2022-10-10T13:29:33.572Z,16.43
2022-10-10T13:32:05.095Z,16.82
2022-10-10T13:34:40.131Z,16.99
2022-10-10T13:37:09.909Z,16.73
2022-10-10T13:39:40.751Z,16.67
2022-10-10T13:42:20.209Z,16.63
2022-10-10T13:44:52.363Z,16.40
2022-10-10T13:47:45.722Z,16.42
2022-10-10T13:50:25.775Z,16.24
2022-10-10T13:53:26.516Z,16.34
2022-10-10T13:56:03.098Z,16.25
2022-10-10T13:58:34.170Z,15.94
2022-10-10T14:01:06.022Z,15.79
2022-10-10T14:03:36.095Z,15.44
2022-10-10T14:06:08.546Z,15.34
2022-10-10T14:08:37.998Z,15.27
2022-10-10T14:11:09.060Z,15.19
2022-10-10T14:13:40.380Z,15.19
2022-10-10T14:16:14.241Z,15.20
2022-10-10T14:18:46.990Z,15.17
2022-10-10T14:21:19.010Z,15.14
2022-10-10T14:23:48.412Z,15.07
2022-10-10T14:26:19.574Z,15.07
2022-10-10T14:28:49.454Z,15.01
2022-10-10T14:31:19.116Z,14.92
2022-10-10T14:33:48.508Z,14.89
2022-10-10T14:36:20.502Z,14.85
2022-10-10T14:38:49.892Z,14.80
2022-10-10T14:41:19.286Z,14.80
2022-10-10T14:43:48.694Z,14.76
2022-10-10T14:46:20.396Z,14.72
2022-10-10T14:48:49.873Z,14.70
2022-10-10T14:51:33.963Z,14.65
2022-10-10T14:54:09.885Z,14.64
2022-10-10T14:57:08.653Z,14.60
2022-10-10T14:59:48.254Z,14.66
2022-10-10T15:02:20.764Z,14.58
2022-10-10T15:04:50.655Z,14.56
2022-10-10T15:07:22.945Z,14.52
2022-10-10T15:12:43.474Z,14.48
2022-10-10T15:15:14.561Z,14.47
2022-10-10T15:17:44.382Z,14.40
2022-10-10T15:20:15.165Z,14.41
2022-10-10T15:22:48.032Z,14.36
2022-10-10T15:25:17.386Z,14.32
2022-10-10T15:27:46.781Z,14.32
2022-10-10T15:30:16.442Z,14.30
2022-10-10T15:32:45.838Z,14.26
2022-10-10T15:35:17.458Z,14.24
2022-10-10T15:37:49.795Z,14.23
2022-10-10T15:40:21.008Z,14.21
2022-10-10T15:42:51.170Z,14.21
2022-10-10T15:45:51.089Z,14.17
2022-10-10T15:48:10.539Z,14.15
2022-10-10T15:50:44.297Z,14.15
2022-10-10T15:53:16.293Z,14.16
2022-10-10T15:55:45.973Z,14.15
2022-10-10T15:58:15.838Z,14.18
2022-10-10T16:00:46.371Z,14.13
2022-10-10T16:03:15.861Z,14.13
2022-10-10T16:05:46.025Z,14.02
2022-10-10T16:08:18.944Z,13.92
2022-10-10T16:10:48.334Z,13.85
2022-10-10T16:13:17.724Z,13.73
2022-10-10T16:15:47.135Z,13.61
2022-10-10T16:18:16.549Z,13.50
2022-10-10T16:20:46.676Z,13.36
2022-10-10T16:23:18.681Z,13.25
2022-10-10T16:25:48.094Z,13.05
2022-10-10T16:28:17.528Z,12.82
2022-10-10T16:30:46.939Z,12.58
2022-10-10T16:33:16.334Z,12.43
2022-10-10T16:35:45.724Z,12.23
2022-10-10T16:38:17.702Z,12.20
2022-10-10T16:40:47.131Z,12.04
2022-10-10T16:43:17.112Z,11.98
2022-10-10T16:45:46.861Z,11.81
2022-10-10T16:48:16.245Z,11.73
2022-10-10T16:50:45.667Z,11.65
2022-10-10T16:53:15.050Z,11.64
2022-10-10T16:55:47.013Z,11.55
2022-10-10T16:58:16.397Z,11.53
2022-10-10T17:00:45.867Z,11.44
2022-10-10T17:03:15.331Z,11.40
2022-10-10T17:05:45.573Z,11.36
2022-10-10T17:08:15.174Z,11.32
2022-10-10T17:10:48.206Z,11.28
2022-10-10T17:13:17.558Z,11.28
2022-10-10T17:15:46.937Z,11.26
2022-10-10T17:18:17.435Z,11.21
2022-10-10T17:20:47.088Z,11.25
2022-10-10T17:23:18.061Z,11.24
2022-10-10T17:25:50.198Z,11.23
2022-10-10T17:28:19.807Z,11.11
2022-10-10T17:30:51.260Z,11.11
2022-10-10T17:33:23.466Z,10.98
2022-10-10T17:35:52.890Z,10.86
2022-10-10T17:38:39.147Z,10.84
2022-10-10T17:41:13.181Z,10.73
2022-10-10T17:43:43.006Z,10.52
2022-10-10T17:46:33.939Z,10.48
2022-10-10T17:49:04.558Z,10.42
2022-10-10T17:51:34.042Z,10.30
2022-10-10T17:54:04.396Z,10.23
2022-10-10T17:56:37.446Z,10.14
2022-10-10T17:59:07.101Z,10.06
2022-10-10T18:01:37.333Z,10.02
2022-10-10T18:04:07.226Z,9.96
2022-10-10T18:06:38.894Z,9.95
2022-10-10T18:09:08.488Z,10.04
2022-10-10T18:11:40.473Z,9.97
2022-10-10T18:14:09.949Z,9.88
2022-10-10T18:16:39.358Z,9.84
2022-10-10T18:19:10.367Z,9.77
2022-10-10T18:21:39.740Z,9.72
2022-10-10T18:24:10.043Z,9.67
2022-10-10T18:26:42.024Z,9.57
2022-10-10T18:29:11.458Z,9.55
2022-10-10T18:31:40.885Z,9.54
2022-10-10T18:34:10.563Z,9.48
2022-10-10T18:36:42.392Z,9.43
2022-10-10T18:39:15.252Z,9.39
2022-10-10T18:41:47.424Z,9.34
2022-10-10T18:44:18.730Z,9.30
2022-10-10T18:46:48.786Z,9.21
2022-10-10T18:49:18.929Z,9.16
2022-10-10T18:51:48.402Z,9.17
2022-10-10T18:54:19.291Z,9.10
2022-10-10T18:56:51.574Z,9.00
2022-10-10T18:59:22.463Z,8.98
2022-10-10T19:01:52.729Z,8.97
2022-10-10T19:04:23.301Z,8.93
2022-10-10T19:06:57.141Z,8.84
2022-10-10T19:09:27.315Z,8.76
2022-10-10T19:11:59.354Z,8.71
2022-10-10T19:14:28.729Z,8.68
2022-10-10T19:16:58.644Z,8.68
2022-10-10T19:19:28.126Z,8.65
2022-10-10T19:21:57.541Z,8.63
2022-10-10T19:24:26.967Z,8.62
2022-10-10T19:26:59.323Z,8.63
2022-10-10T19:29:29.332Z,8.59
2022-10-10T19:31:59.320Z,8.57
2022-10-10T19:34:33.110Z,8.56
2022-10-10T19:37:07.695Z,8.57
2022-10-10T19:39:40.297Z,8.52
2022-10-10T19:42:12.376Z,8.48
2022-10-10T19:44:41.746Z,8.50
2022-10-10T19:47:11.155Z,8.49
2022-10-10T19:49:40.608Z,8.44
2022-10-10T19:52:10.051Z,8.46
2022-10-10T19:54:39.507Z,8.41
2022-10-10T19:57:08.960Z,8.43
2022-10-10T19:59:40.967Z,8.36
2022-10-10T20:02:10.886Z,8.37
2022-10-10T20:04:40.249Z,8.35
2022-10-10T20:07:09.665Z,8.34
2022-10-10T20:09:39.038Z,8.33
2022-10-10T20:12:08.765Z,8.32
2022-10-10T20:14:40.778Z,8.28
2022-10-10T20:17:10.159Z,8.26
2022-10-10T20:19:39.583Z,8.22
2022-10-10T20:22:09.095Z,8.23
2022-10-10T20:24:38.474Z,8.18
2022-10-10T20:27:07.885Z,8.21
2022-10-10T20:29:38.467Z,8.16
2022-10-10T20:32:10.527Z,8.14
2022-10-10T20:34:39.997Z,8.11
2022-10-10T20:37:09.382Z,8.10
2022-10-10T20:39:38.769Z,8.09
2022-10-10T20:42:08.241Z,8.08
2022-10-10T20:44:37.840Z,8.05
2022-10-10T20:47:09.903Z,8.03
2022-10-10T20:49:39.306Z,8.04
2022-10-10T20:52:08.727Z,8.01
2022-10-10T20:54:38.699Z,8.02
2022-10-10T20:57:08.067Z,7.99
2022-10-10T20:59:37.452Z,7.94
2022-10-10T21:02:06.917Z,7.90
2022-10-10T21:04:38.900Z,7.90
2022-10-10T21:07:08.289Z,7.88
2022-10-10T21:09:37.888Z,7.84
2022-10-10T21:12:07.562Z,7.85
2022-10-10T21:14:37.263Z,7.84
2022-10-10T21:17:06.677Z,7.82
2022-10-10T21:19:36.046Z,7.80
2022-10-10T21:22:08.046Z,7.81
2022-10-10T21:24:37.432Z,7.83
2022-10-10T21:27:07.022Z,7.82
2022-10-10T21:29:36.484Z,7.77
2022-10-10T21:32:06.174Z,7.77
2022-10-10T21:34:35.553Z,7.76
2022-10-10T21:37:05.033Z,7.74
2022-10-10T21:39:37.073Z,7.75
2022-10-10T21:42:06.682Z,7.72
2022-10-10T21:44:36.298Z,7.69
2022-10-10T21:47:05.733Z,7.72
2022-10-10T21:49:35.682Z,7.73
2022-10-10T21:52:05.117Z,7.75
2022-10-10T21:54:37.082Z,7.76
2022-10-10T21:57:06.734Z,7.72
2022-10-10T21:59:36.106Z,7.69
2022-10-10T22:02:05.481Z,7.77
2022-10-10T22:04:34.869Z,7.72
2022-10-10T22:07:04.738Z,7.69
2022-10-10T22:09:36.694Z,7.70
2022-10-10T22:12:06.573Z,7.65
2022-10-10T22:14:36.009Z,7.64
2022-10-10T22:17:05.427Z,7.64
2022-10-10T22:19:34.905Z,7.68
2022-10-10T22:22:04.293Z,7.66
2022-10-10T22:24:33.777Z,7.60
2022-10-10T22:27:05.770Z,7.63
2022-10-10T22:29:35.159Z,7.61
2022-10-10T22:32:04.598Z,7.61
2022-10-10T22:34:33.995Z,7.61
2022-10-10T22:37:03.400Z,7.60
2022-10-10T22:39:32.942Z,7.59
2022-10-10T22:42:05.364Z,7.61
2022-10-10T22:44:34.768Z,7.62
2022-10-10T22:47:04.310Z,7.63
2022-10-10T22:49:37.675Z,7.60
2022-10-10T22:52:07.322Z,7.58
2022-10-10T22:54:36.946Z,7.59
2022-10-10T22:57:08.953Z,7.55
2022-10-10T22:59:38.510Z,7.54
2022-10-10T23:02:07.927Z,7.53
2022-10-10T23:04:37.313Z,7.53
2022-10-10T23:07:06.834Z,7.50
2022-10-10T23:09:36.322Z,7.49
2022-10-10T23:12:06.138Z,7.51
2022-10-10T23:14:38.195Z,7.53
2022-10-10T23:17:07.991Z,7.50
2022-10-10T23:19:37.524Z,7.47
2022-10-10T23:22:06.998Z,7.45
2022-10-10T23:24:36.405Z,7.45
2022-10-10T23:27:05.897Z,7.44
2022-10-10T23:29:38.115Z,7.43
2022-10-10T23:32:07.721Z,7.41
2022-10-10T23:34:37.177Z,7.40
2022-10-10T23:37:06.585Z,7.40
2022-10-10T23:39:35.989Z,7.38
2022-10-10T23:42:05.365Z,7.34
2022-10-10T23:44:34.748Z,7.36
2022-10-10T23:47:06.826Z,7.32
2022-10-10T23:49:36.202Z,7.29
2022-10-10T23:52:05.629Z,7.30
2022-10-10T23:54:35.457Z,7.27
2022-10-10T23:57:04.923Z,7.29
2022-10-10T23:59:34.313Z,7.23
